sensor_id;sensor_type;location;lat;lon;timestamp;pressure;altitude;pressure_sealevel;temperature;humidity
20015;BME280;61787;42.022;23.078;2023-12-07T00:00:49;96387.34;;;8.64;100.00
20015;BME280;61787;42.022;23.078;2023-12-07T00:01:50;96392.69;;;8.64;100.00
20015;BME280;61787;42.022;23.078;2023-12-07T00:02:52;96388.03;;;8.61;100.00
20015;BME280;61787;42.022;23.078;2023-12-07T00:03:54;96389.56;;;8.62;100.00
20015;BME280;61787;42.022;23.078;2023-12-07T00:04:55;96391.13;;;8.63;100.00
20015;BME280;61787;42.022;23.078;2023-12-07T00:05:57;96392.69;;;8.64;100.00
20015;BME280;61787;42.022;23.078;2023-12-07T00:06:59;96393.47;;;8.65;100.00
20015;BME280;61787;42.022;23.078;2023-12-07T00:08:01;96388.91;;;8.65;100.00
20015;BME280;61787;42.022;23.078;2023-12-07T00:09:02;96395.38;;;8.64;100.00
20015;BME280;61787;42.022;23.078;2023-12-07T00:10:04;96394.25;;;8.65;100.00
20015;BME280;61787;42.022;23.078;2023-12-07T00:11:06;96396.16;;;8.65;100.00
20015;BME280;61787;42.022;23.078;2023-12-07T00:12:08;96393.16;;;8.66;100.00
20015;BME280;61787;42.022;23.078;2023-12-07T00:13:10;96391.25;;;8.67;100.00
20015;BME280;61787;42.022;23.078;2023-12-07T00:14:11;96394.56;;;8.64;100.00
20015;BME280;61787;42.022;23.078;2023-12-07T00:15:13;96394.25;;;8.65;100.00
20015;BME280;61787;42.022;23.078;2023-12-07T00:16:15;96401.16;;;8.66;100.00
20015;BME280;61787;42.022;23.078;2023-12-07T00:17:17;96391.25;;;8.67;100.00
20015;BME280;61787;42.022;23.078;2023-12-07T00:18:18;96401.97;;;8.67;100.00
20015;BME280;61787;42.022;23.078;2023-12-07T00:19:20;96402.72;;;8.67;100.00
20015;BME280;61787;42.022;23.078;2023-12-07T00:20:22;96401.97;;;8.67;100.00
20015;BME280;61787;42.022;23.078;2023-12-07T00:21:24;96402.72;;;8.67;100.00
20015;BME280;61787;42.022;23.078;2023-12-07T00:22:25;96390.47;;;8.66;100.00
20015;BME280;61787;42.022;23.078;2023-12-07T00:23:28;96392.81;;;8.68;100.00
20015;BME280;61787;42.022;23.078;2023-12-07T00:24:30;96396.47;;;8.63;100.00
20015;BME280;61787;42.022;23.078;2023-12-07T00:25:32;96402.16;;;8.62;100.00
20015;BME280;61787;42.022;23.078;2023-12-07T00:26:33;96394.41;;;8.48;100.00
20015;BME280;61787;42.022;23.078;2023-12-07T00:27:35;96399.72;;;8.36;100.00
20015;BME280;61787;42.022;23.078;2023-12-07T00:28:37;96398.75;;;8.20;100.00
20015;BME280;61787;42.022;23.078;2023-12-07T00:29:38;96399.97;;;8.01;100.00
20015;BME280;61787;42.022;23.078;2023-12-07T00:30:40;96402.72;;;7.93;100.00
20015;BME280;61787;42.022;23.078;2023-12-07T00:31:43;96401.16;;;7.92;100.00
20015;BME280;61787;42.022;23.078;2023-12-07T00:32:45;96400.25;;;7.88;100.00
20015;BME280;61787;42.022;23.078;2023-12-07T00:33:48;96396.06;;;7.78;100.00
20015;BME280;61787;42.022;23.078;2023-12-07T00:34:49;96401.13;;;7.71;100.00
20015;BME280;61787;42.022;23.078;2023-12-07T00:35:51;96400.41;;;7.62;100.00
20015;BME280;61787;42.022;23.078;2023-12-07T00:36:53;96390.22;;;7.55;100.00
20015;BME280;61787;42.022;23.078;2023-12-07T00:37:55;96400.88;;;7.64;100.00
20015;BME280;61787;42.022;23.078;2023-12-07T00:38:57;96399.56;;;7.70;100.00
20015;BME280;61787;42.022;23.078;2023-12-07T00:39:59;96393.41;;;7.78;100.00
20015;BME280;61787;42.022;23.078;2023-12-07T00:41:01;96395.22;;;7.86;100.00
20015;BME280;61787;42.022;23.078;2023-12-07T00:42:02;96405.25;;;7.89;100.00
20015;BME280;61787;42.022;23.078;2023-12-07T00:43:04;96397.06;;;7.94;100.00
20015;BME280;61787;42.022;23.078;2023-12-07T00:44:06;96411.00;;;8.00;100.00
20015;BME280;61787;42.022;23.078;2023-12-07T00:45:08;96407.34;;;8.04;100.00
20015;BME280;61787;42.022;23.078;2023-12-07T00:46:10;96410.44;;;8.06;100.00
20015;BME280;61787;42.022;23.078;2023-12-07T00:47:12;96403.22;;;8.07;100.00
20015;BME280;61787;42.022;23.078;2023-12-07T00:48:14;96409.16;;;8.12;100.00
20015;BME280;61787;42.022;23.078;2023-12-07T00:49:15;96408.53;;;8.16;100.00
20015;BME280;61787;42.022;23.078;2023-12-07T00:50:17;96408.31;;;8.21;100.00
20015;BME280;61787;42.022;23.078;2023-12-07T00:51:19;96400.75;;;8.23;100.00
20015;BME280;61787;42.022;23.078;2023-12-07T00:52:20;96416.44;;;8.24;100.00
20015;BME280;61787;42.022;23.078;2023-12-07T00:53:23;96415.78;;;8.27;100.00
20015;BME280;61787;42.022;23.078;2023-12-07T00:54:24;96412.78;;;8.29;100.00
20015;BME280;61787;42.022;23.078;2023-12-07T00:55:26;96415.63;;;8.32;100.00
20015;BME280;61787;42.022;23.078;2023-12-07T00:56:28;96417.66;;;8.35;100.00
20015;BME280;61787;42.022;23.078;2023-12-07T00:57:29;96415.09;;;8.39;100.00
20015;BME280;61787;42.022;23.078;2023-12-07T00:58:31;96418.22;;;8.41;100.00
20015;BME280;61787;42.022;23.078;2023-12-07T00:59:33;96411.75;;;8.42;100.00
20015;BME280;61787;42.022;23.078;2023-12-07T01:00:35;96411.56;;;8.47;100.00
20015;BME280;61787;42.022;23.078;2023-12-07T01:01:38;96421.91;;;8.48;100.00
20015;BME280;61787;42.022;23.078;2023-12-07T01:02:40;96418.13;;;8.49;100.00
20015;BME280;61787;42.022;23.078;2023-12-07T01:03:42;96419.72;;;8.50;100.00
20015;BME280;61787;42.022;23.078;2023-12-07T01:04:44;96420.59;;;8.54;100.00
20015;BME280;61787;42.022;23.078;2023-12-07T01:05:45;96419.50;;;8.55;100.00
20015;BME280;61787;42.022;23.078;2023-12-07T01:06:47;96419.16;;;8.57;100.00
20015;BME280;61787;42.022;23.078;2023-12-07T01:07:49;96419.63;;;8.59;100.00
20015;BME280;61787;42.022;23.078;2023-12-07T01:08:51;96421.63;;;8.62;100.00
20015;BME280;61787;42.022;23.078;2023-12-07T01:09:52;96415.53;;;8.62;100.00
20015;BME280;61787;42.022;23.078;2023-12-07T01:10:54;96417.84;;;8.63;100.00
20015;BME280;61787;42.022;23.078;2023-12-07T01:11:56;96426.31;;;8.65;100.00
20015;BME280;61787;42.022;23.078;2023-12-07T01:12:59;96416.41;;;8.66;100.00
20015;BME280;61787;42.022;23.078;2023-12-07T01:14:01;96423.66;;;8.65;100.00
20015;BME280;61787;42.022;23.078;2023-12-07T01:15:03;96418.00;;;8.67;100.00
20015;BME280;61787;42.022;23.078;2023-12-07T01:16:05;96413.41;;;8.67;100.00
20015;BME280;61787;42.022;23.078;2023-12-07T01:17:07;96421.88;;;8.69;100.00
20015;BME280;61787;42.022;23.078;2023-12-07T01:18:09;96415.44;;;8.70;100.00
20015;BME280;61787;42.022;23.078;2023-12-07T01:19:11;96423.13;;;8.72;100.00
20015;BME280;61787;42.022;23.078;2023-12-07T01:20:15;96421.22;;;8.72;100.00
20015;BME280;61787;42.022;23.078;2023-12-07T01:21:18;96421.66;;;8.74;100.00
20015;BME280;61787;42.022;23.078;2023-12-07T01:22:20;96416.66;;;8.73;100.00
20015;BME280;61787;42.022;23.078;2023-12-07T01:23:22;96418.22;;;8.74;100.00
20015;BME280;61787;42.022;23.078;2023-12-07T01:24:24;96423.25;;;8.75;100.00
20015;BME280;61787;42.022;23.078;2023-12-07T01:25:26;96425.91;;;8.75;100.00
20015;BME280;61787;42.022;23.078;2023-12-07T01:26:27;96427.47;;;8.76;100.00
20015;BME280;61787;42.022;23.078;2023-12-07T01:27:29;96415.66;;;8.77;100.00
20015;BME280;61787;42.022;23.078;2023-12-07T01:28:31;96426.81;;;8.79;100.00
20015;BME280;61787;42.022;23.078;2023-12-07T01:29:32;96414.53;;;8.78;100.00
20015;BME280;61787;42.022;23.078;2023-12-07T01:30:34;96416.44;;;8.78;100.00
20015;BME280;61787;42.022;23.078;2023-12-07T01:31:37;96408.31;;;8.74;100.00
20015;BME280;61787;42.022;23.078;2023-12-07T01:32:39;96411.84;;;8.66;100.00
20015;BME280;61787;42.022;23.078;2023-12-07T01:33:41;96411.59;;;8.59;100.00
20015;BME280;61787;42.022;23.078;2023-12-07T01:34:42;96410.91;;;8.50;100.00
20015;BME280;61787;42.022;23.078;2023-12-07T01:35:44;96407.44;;;8.29;100.00
20015;BME280;61787;42.022;23.078;2023-12-07T01:36:46;96400.69;;;8.10;100.00
20015;BME280;61787;42.022;23.078;2023-12-07T01:37:47;96402.78;;;8.05;100.00
20015;BME280;61787;42.022;23.078;2023-12-07T01:38:49;96394.44;;;8.06;100.00
20015;BME280;61787;42.022;23.078;2023-12-07T01:39:51;96396.91;;;8.11;100.00
20015;BME280;61787;42.022;23.078;2023-12-07T01:40:53;96399.00;;;8.06;100.00
20015;BME280;61787;42.022;23.078;2023-12-07T01:41:55;96397.44;;;8.05;100.00
20015;BME280;61787;42.022;23.078;2023-12-07T01:42:56;96391.97;;;8.01;100.00
20015;BME280;61787;42.022;23.078;2023-12-07T01:43:58;96398.59;;;7.95;100.00
20015;BME280;61787;42.022;23.078;2023-12-07T01:45:00;96395.50;;;7.93;100.00
20015;BME280;61787;42.022;23.078;2023-12-07T01:46:02;96400.25;;;7.88;100.00
20015;BME280;61787;42.022;23.078;2023-12-07T01:47:05;96391.63;;;7.82;100.00
20015;BME280;61787;42.022;23.078;2023-12-07T01:48:09;96394.03;;;7.75;100.00
20015;BME280;61787;42.022;23.078;2023-12-07T01:49:11;96384.22;;;7.67;100.00
20015;BME280;61787;42.022;23.078;2023-12-07T01:50:13;96384.41;;;7.62;100.00
20015;BME280;61787;42.022;23.078;2023-12-07T01:51:19;96390.84;;;7.61;100.00
20015;BME280;61787;42.022;23.078;2023-12-07T01:52:23;96388.47;;;7.59;100.00
20015;BME280;61787;42.022;23.078;2023-12-07T01:53:27;96384.28;;;7.58;100.00
20015;BME280;61787;42.022;23.078;2023-12-07T01:54:29;96380.22;;;7.52;100.00
20015;BME280;61787;42.022;23.078;2023-12-07T01:55:32;96384.13;;;7.55;100.00
20015;BME280;61787;42.022;23.078;2023-12-07T01:56:34;96381.25;;;7.60;100.00
20015;BME280;61787;42.022;23.078;2023-12-07T01:57:36;96381.06;;;7.65;100.00
20015;BME280;61787;42.022;23.078;2023-12-07T01:58:38;96380.56;;;7.71;100.00
20015;BME280;61787;42.022;23.078;2023-12-07T01:59:40;96378.16;;;7.79;100.00
20015;BME280;61787;42.022;23.078;2023-12-07T02:00:42;96376.09;;;7.84;100.00
20015;BME280;61787;42.022;23.078;2023-12-07T02:01:44;96383.91;;;7.89;100.00
20015;BME280;61787;42.022;23.078;2023-12-07T02:02:47;96380.56;;;7.92;100.00
20015;BME280;61787;42.022;23.078;2023-12-07T02:03:48;96375.03;;;7.97;100.00
20015;BME280;61787;42.022;23.078;2023-12-07T02:04:50;96372.84;;;7.99;100.00
20015;BME280;61787;42.022;23.078;2023-12-07T02:05:53;96379.91;;;7.95;100.00
20015;BME280;61787;42.022;23.078;2023-12-07T02:06:57;96372.56;;;7.92;100.00
20015;BME280;61787;42.022;23.078;2023-12-07T02:08:01;96371.66;;;7.88;100.00
20015;BME280;61787;42.022;23.078;2023-12-07T02:09:02;96369.19;;;7.83;100.00
20015;BME280;61787;42.022;23.078;2023-12-07T02:10:05;96366.19;;;7.85;100.00
20015;BME280;61787;42.022;23.078;2023-12-07T02:11:08;96369.00;;;7.88;100.00
20015;BME280;61787;42.022;23.078;2023-12-07T02:12:10;96363.78;;;7.92;100.00
20015;BME280;61787;42.022;23.078;2023-12-07T02:13:12;96365.47;;;7.96;100.00
20015;BME280;61787;42.022;23.078;2023-12-07T02:14:14;96368.41;;;8.03;100.00
20015;BME280;61787;42.022;23.078;2023-12-07T02:15:16;96365.53;;;8.08;100.00
20015;BME280;61787;42.022;23.078;2023-12-07T02:17:37;96368.13;;;8.17;100.00
20015;BME280;61787;42.022;23.078;2023-12-07T02:21:44;96367.13;;;8.22;100.00
20015;BME280;61787;42.022;23.078;2023-12-07T02:22:54;96366.50;;;8.25;100.00
20015;BME280;61787;42.022;23.078;2023-12-07T02:23:58;96362.72;;;8.26;100.00
20015;BME280;61787;42.022;23.078;2023-12-07T02:25:14;96363.16;;;8.28;100.00
20015;BME280;61787;42.022;23.078;2023-12-07T02:26:18;96357.69;;;8.24;100.00
20015;BME280;61787;42.022;23.078;2023-12-07T02:27:50;96366.81;;;8.23;100.00
20015;BME280;61787;42.022;23.078;2023-12-07T02:28:52;96363.97;;;8.07;100.00
20015;BME280;61787;42.022;23.078;2023-12-07T02:29:54;96356.66;;;7.96;100.00
20015;BME280;61787;42.022;23.078;2023-12-07T02:30:55;96358.75;;;7.90;100.00
20015;BME280;61787;42.022;23.078;2023-12-07T02:31:57;96355.53;;;7.85;100.00
20015;BME280;61787;42.022;23.078;2023-12-07T02:32:59;96355.25;;;7.78;100.00
20015;BME280;61787;42.022;23.078;2023-12-07T02:34:01;96354.19;;;7.70;100.00
20015;BME280;61787;42.022;23.078;2023-12-07T02:35:03;96346.84;;;7.67;100.00
20015;BME280;61787;42.022;23.078;2023-12-07T02:36:05;96339.31;;;7.69;100.00
20015;BME280;61787;42.022;23.078;2023-12-07T02:37:07;96341.78;;;7.74;100.00
20015;BME280;61787;42.022;23.078;2023-12-07T02:38:10;96346.25;;;7.82;100.00
20015;BME280;61787;42.022;23.078;2023-12-07T02:39:12;96341.50;;;7.88;100.00
20015;BME280;61787;42.022;23.078;2023-12-07T02:40:26;96339.88;;;7.95;100.00
20015;BME280;61787;42.022;23.078;2023-12-07T02:41:33;96340.13;;;8.02;100.00
20015;BME280;61787;42.022;23.078;2023-12-07T02:42:35;96335.69;;;8.06;100.00
20015;BME280;61787;42.022;23.078;2023-12-07T02:43:38;96334.38;;;8.12;100.00
20015;BME280;61787;42.022;23.078;2023-12-07T02:44:40;96333.75;;;8.16;100.00
20015;BME280;61787;42.022;23.078;2023-12-07T02:45:42;96335.44;;;8.20;100.00
20015;BME280;61787;42.022;23.078;2023-12-07T02:46:45;96337.75;;;8.22;100.00
20015;BME280;61787;42.022;23.078;2023-12-07T02:47:46;96334.75;;;8.23;100.00
20015;BME280;61787;42.022;23.078;2023-12-07T02:48:48;96341.78;;;8.28;100.00
20015;BME280;61787;42.022;23.078;2023-12-07T02:49:50;96334.25;;;8.30;100.00
20015;BME280;61787;42.022;23.078;2023-12-07T02:50:52;96336.59;;;8.31;100.00
20015;BME280;61787;42.022;23.078;2023-12-07T02:51:53;96338.94;;;8.33;100.00
20015;BME280;61787;42.022;23.078;2023-12-07T02:52:55;96340.50;;;8.34;100.00
20015;BME280;61787;42.022;23.078;2023-12-07T02:53:58;96346.75;;;8.38;100.00
20015;BME280;61787;42.022;23.078;2023-12-07T02:55:00;96341.84;;;8.40;100.00
20015;BME280;61787;42.022;23.078;2023-12-07T02:56:01;96346.09;;;8.41;100.00
20015;BME280;61787;42.022;23.078;2023-12-07T02:57:03;96346.09;;;8.41;100.00
20015;BME280;61787;42.022;23.078;2023-12-07T02:58:05;96343.75;;;8.39;100.00
20015;BME280;61787;42.022;23.078;2023-12-07T02:59:08;96354.31;;;8.36;100.00
20015;BME280;61787;42.022;23.078;2023-12-07T03:00:10;96345.53;;;8.35;100.00
20015;BME280;61787;42.022;23.078;2023-12-07T03:01:14;96347.41;;;8.35;100.00
20015;BME280;61787;42.022;23.078;2023-12-07T03:02:16;96346.75;;;8.38;100.00
20015;BME280;61787;42.022;23.078;2023-12-07T03:03:17;96351.97;;;8.34;100.00
20015;BME280;61787;42.022;23.078;2023-12-07T03:04:19;96344.94;;;8.30;100.00
20015;BME280;61787;42.022;23.078;2023-12-07T03:05:21;96348.06;;;8.32;100.00
20015;BME280;61787;42.022;23.078;2023-12-07T03:06:24;96346.94;;;8.33;100.00
20015;BME280;61787;42.022;23.078;2023-12-07T03:07:26;96353.84;;;8.34;100.00
20015;BME280;61787;42.022;23.078;2023-12-07T03:08:27;96351.19;;;8.34;100.00
20015;BME280;61787;42.022;23.078;2023-12-07T03:09:30;96354.31;;;8.36;100.00
20015;BME280;61787;42.022;23.078;2023-12-07T03:10:31;96352.75;;;8.35;100.00
20015;BME280;61787;42.022;23.078;2023-12-07T03:11:33;96355.75;;;8.33;100.00
20015;BME280;61787;42.022;23.078;2023-12-07T03:12:35;96358.88;;;8.35;100.00
20015;BME280;61787;42.022;23.078;2023-12-07T03:13:37;96361.56;;;8.35;100.00
20015;BME280;61787;42.022;23.078;2023-12-07T03:14:39;96355.44;;;8.35;100.00
20015;BME280;61787;42.022;23.078;2023-12-07T03:15:41;96362.34;;;8.36;100.00
20015;BME280;61787;42.022;23.078;2023-12-07T03:16:42;96361.56;;;8.35;100.00
20015;BME280;61787;42.022;23.078;2023-12-07T03:17:44;96366.53;;;8.37;100.00
20015;BME280;61787;42.022;23.078;2023-12-07T03:18:45;96363.88;;;8.37;100.00
20015;BME280;61787;42.022;23.078;2023-12-07T03:19:47;96367.31;;;8.37;100.00
20015;BME280;61787;42.022;23.078;2023-12-07T03:20:49;96364.72;;;8.29;100.00
20015;BME280;61787;42.022;23.078;2023-12-07T03:21:52;96366.69;;;8.20;100.00
20015;BME280;61787;42.022;23.078;2023-12-07T03:22:53;96368.63;;;8.10;100.00
20015;BME280;61787;42.022;23.078;2023-12-07T03:23:55;96366.00;;;7.90;100.00
20015;BME280;61787;42.022;23.078;2023-12-07T03:24:57;96362.16;;;7.79;100.00
20015;BME280;61787;42.022;23.078;2023-12-07T03:25:59;96371.75;;;7.50;100.00
20015;BME280;61787;42.022;23.078;2023-12-07T03:27:00;96373.66;;;7.20;100.00
20015;BME280;61787;42.022;23.078;2023-12-07T03:28:02;96366.19;;;7.05;100.00
20015;BME280;61787;42.022;23.078;2023-12-07T03:29:04;96368.13;;;6.96;100.00
20015;BME280;61787;42.022;23.078;2023-12-07T03:30:06;96360.00;;;6.84;100.00
20015;BME280;61787;42.022;23.078;2023-12-07T03:31:08;96355.16;;;6.77;100.00
20015;BME280;61787;42.022;23.078;2023-12-07T03:32:10;96360.03;;;6.75;100.00
20015;BME280;61787;42.022;23.078;2023-12-07T03:33:11;96351.75;;;6.68;100.00
20015;BME280;61787;42.022;23.078;2023-12-07T03:34:13;96351.47;;;6.61;100.00
20015;BME280;61787;42.022;23.078;2023-12-07T03:35:17;96350.69;;;6.61;100.00
20015;BME280;61787;42.022;23.078;2023-12-07T03:36:19;96355.84;;;6.57;100.00
20015;BME280;61787;42.022;23.078;2023-12-07T03:37:20;96351.19;;;6.54;100.00
20015;BME280;61787;42.022;23.078;2023-12-07T03:38:22;96351.03;;;6.51;100.00
20015;BME280;61787;42.022;23.078;2023-12-07T03:39:24;96354.97;;;6.45;100.00
20015;BME280;61787;42.022;23.078;2023-12-07T03:40:27;96344.94;;;6.41;100.00
20015;BME280;61787;42.022;23.078;2023-12-07T03:41:29;96339.78;;;6.36;100.00
20015;BME280;61787;42.022;23.078;2023-12-07T03:42:30;96341.97;;;6.34;100.00
20015;BME280;61787;42.022;23.078;2023-12-07T03:43:52;96338.84;;;6.32;100.00
20015;BME280;61787;42.022;23.078;2023-12-07T03:44:54;96334.16;;;6.29;100.00
20015;BME280;61787;42.022;23.078;2023-12-07T03:45:56;96340.09;;;6.26;100.00
20015;BME280;61787;42.022;23.078;2023-12-07T03:46:57;96333.69;;;6.27;100.00
20015;BME280;61787;42.022;23.078;2023-12-07T03:47:59;96327.28;;;6.28;100.00
20015;BME280;61787;42.022;23.078;2023-12-07T03:49:01;96328.06;;;6.29;100.00
20015;BME280;61787;42.022;23.078;2023-12-07T03:50:03;96326.63;;;6.31;100.00
20015;BME280;61787;42.022;23.078;2023-12-07T03:51:05;96330.84;;;6.32;100.00
20015;BME280;61787;42.022;23.078;2023-12-07T03:52:07;96326.00;;;6.34;100.00
20015;BME280;61787;42.022;23.078;2023-12-07T03:53:09;96331.00;;;6.45;100.00
20015;BME280;61787;42.022;23.078;2023-12-07T03:54:11;96326.59;;;6.49;100.00
20015;BME280;61787;42.022;23.078;2023-12-07T03:55:12;96328.28;;;6.53;100.00
20015;BME280;61787;42.022;23.078;2023-12-07T03:56:25;96326.25;;;6.59;100.00
20015;BME280;61787;42.022;23.078;2023-12-07T03:57:27;96317.59;;;6.62;100.00
20015;BME280;61787;42.022;23.078;2023-12-07T03:58:28;96324.06;;;6.61;100.00
20015;BME280;61787;42.022;23.078;2023-12-07T03:59:30;96323.88;;;6.57;100.00
20015;BME280;61787;42.022;23.078;2023-12-07T04:00:32;96326.25;;;6.59;100.00
20015;BME280;61787;42.022;23.078;2023-12-07T04:01:33;96328.75;;;6.64;100.00
20015;BME280;61787;42.022;23.078;2023-12-07T04:02:35;96331.22;;;6.69;100.00
20015;BME280;61787;42.022;23.078;2023-12-07T04:03:37;96330.59;;;6.72;100.00
20015;BME280;61787;42.022;23.078;2023-12-07T04:04:39;96331.53;;;6.76;100.00
20015;BME280;61787;42.022;23.078;2023-12-07T04:05:41;96327.75;;;6.77;100.00
20015;BME280;61787;42.022;23.078;2023-12-07T04:06:42;96328.53;;;6.77;100.00
20015;BME280;61787;42.022;23.078;2023-12-07T04:07:44;96333.34;;;6.84;100.00
20015;BME280;61787;42.022;23.078;2023-12-07T04:08:46;96333.19;;;6.89;100.00
20015;BME280;61787;42.022;23.078;2023-12-07T04:09:47;96326.88;;;6.94;100.00
20015;BME280;61787;42.022;23.078;2023-12-07T04:10:49;96333.47;;;6.96;100.00
20015;BME280;61787;42.022;23.078;2023-12-07T04:11:51;96338.81;;;6.96;100.00
20015;BME280;61787;42.022;23.078;2023-12-07T04:12:52;96341.81;;;6.86;100.00
20015;BME280;61787;42.022;23.078;2023-12-07T04:13:54;96335.72;;;6.85;100.00
20015;BME280;61787;42.022;23.078;2023-12-07T04:14:55;96341.97;;;6.90;100.00
20015;BME280;61787;42.022;23.078;2023-12-07T04:15:58;96338.19;;;6.91;100.00
20015;BME280;61787;42.022;23.078;2023-12-07T04:16:59;96343.22;;;6.92;100.00
20015;BME280;61787;42.022;23.078;2023-12-07T04:18:01;96335.47;;;6.99;100.00
20015;BME280;61787;42.022;23.078;2023-12-07T04:19:04;96344.56;;;7.07;100.00
20015;BME280;61787;42.022;23.078;2023-12-07T04:20:06;96347.81;;;7.12;100.00
20015;BME280;61787;42.022;23.078;2023-12-07T04:21:09;96344.63;;;7.19;100.00
20015;BME280;61787;42.022;23.078;2023-12-07T04:22:10;96345.22;;;7.24;100.00
20015;BME280;61787;42.022;23.078;2023-12-07T04:23:12;96344.13;;;7.25;100.00
20015;BME280;61787;42.022;23.078;2023-12-07T04:24:14;96353.75;;;7.18;100.00
20015;BME280;61787;42.022;23.078;2023-12-07T04:25:15;96349.84;;;7.15;100.00
20015;BME280;61787;42.022;23.078;2023-12-07T04:26:17;96356.75;;;7.16;100.00
20015;BME280;61787;42.022;23.078;2023-12-07T04:27:18;96353.59;;;7.14;100.00
20015;BME280;61787;42.022;23.078;2023-12-07T04:28:21;96361.16;;;7.12;100.00
20015;BME280;61787;42.022;23.078;2023-12-07T04:29:22;96351.28;;;7.13;100.00
20015;BME280;61787;42.022;23.078;2023-12-07T04:30:24;96358.31;;;7.17;100.00
20015;BME280;61787;42.022;23.078;2023-12-07T04:31:26;96363.53;;;7.05;100.00
20015;BME280;61787;42.022;23.078;2023-12-07T04:32:28;96360.88;;;7.05;100.00
20015;BME280;61787;42.022;23.078;2023-12-07T04:33:29;96360.88;;;7.05;100.00
20015;BME280;61787;42.022;23.078;2023-12-07T04:34:31;96360.88;;;7.05;100.00
20015;BME280;61787;42.022;23.078;2023-12-07T04:35:34;96358.81;;;7.11;100.00
20015;BME280;61787;42.022;23.078;2023-12-07T04:36:36;96368.97;;;7.17;100.00
20015;BME280;61787;42.022;23.078;2023-12-07T04:37:37;96360.00;;;7.22;100.00
20015;BME280;61787;42.022;23.078;2023-12-07T04:38:39;96366.25;;;7.26;100.00
20015;BME280;61787;42.022;23.078;2023-12-07T04:39:41;96368.06;;;7.34;100.00
20015;BME280;61787;42.022;23.078;2023-12-07T04:40:43;96362.25;;;7.41;100.00
20015;BME280;61787;42.022;23.078;2023-12-07T04:41:45;96365.81;;;7.45;100.00
20015;BME280;61787;42.022;23.078;2023-12-07T04:42:46;96370.66;;;7.51;100.00
20015;BME280;61787;42.022;23.078;2023-12-07T04:43:48;96371.25;;;7.57;100.00
20015;BME280;61787;42.022;23.078;2023-12-07T04:44:50;96366.81;;;7.61;100.00
20015;BME280;61787;42.022;23.078;2023-12-07T04:45:51;96370.88;;;7.67;100.00
20015;BME280;61787;42.022;23.078;2023-12-07T04:46:53;96369.09;;;7.71;100.00
20015;BME280;61787;42.022;23.078;2023-12-07T04:47:55;96378.03;;;7.75;100.00
20015;BME280;61787;42.022;23.078;2023-12-07T04:48:58;96375.81;;;7.77;100.00
20015;BME280;61787;42.022;23.078;2023-12-07T04:50:00;96382.06;;;7.81;100.00
20015;BME280;61787;42.022;23.078;2023-12-07T04:51:02;96390.06;;;7.81;100.00
20015;BME280;61787;42.022;23.078;2023-12-07T04:52:04;96390.84;;;7.82;100.00
20015;BME280;61787;42.022;23.078;2023-12-07T04:53:06;96396.19;;;7.82;100.00
20015;BME280;61787;42.022;23.078;2023-12-07T04:54:07;96394.31;;;7.82;100.00
20015;BME280;61787;42.022;23.078;2023-12-07T04:55:19;96396.78;;;7.87;100.00
20015;BME280;61787;42.022;23.078;2023-12-07T04:56:21;96392.34;;;7.91;100.00
20015;BME280;61787;42.022;23.078;2023-12-07T04:57:23;96397.69;;;7.91;100.00
20015;BME280;61787;42.022;23.078;2023-12-07T04:58:24;96393.59;;;7.94;100.00
20015;BME280;61787;42.022;23.078;2023-12-07T04:59:26;96400.63;;;7.98;100.00
20015;BME280;61787;42.022;23.078;2023-12-07T05:00:28;96398.88;;;8.02;100.00
20015;BME280;61787;42.022;23.078;2023-12-07T05:01:29;96402.44;;;8.06;100.00
20015;BME280;61787;42.022;23.078;2023-12-07T05:02:31;96399.13;;;8.09;100.00
20015;BME280;61787;42.022;23.078;2023-12-07T05:03:34;96407.59;;;8.11;100.00
20015;BME280;61787;42.022;23.078;2023-12-07T05:04:35;96405.38;;;8.13;100.00
20015;BME280;61787;42.022;23.078;2023-12-07T05:05:37;96409.28;;;8.16;100.00
20015;BME280;61787;42.022;23.078;2023-12-07T05:06:39;96410.84;;;8.17;100.00
20015;BME280;61787;42.022;23.078;2023-12-07T05:07:41;96407.84;;;8.19;100.00
20015;BME280;61787;42.022;23.078;2023-12-07T05:08:43;96417.88;;;8.22;100.00
20015;BME280;61787;42.022;23.078;2023-12-07T05:09:44;96421.00;;;8.24;100.00
20015;BME280;61787;42.022;23.078;2023-12-07T05:10:47;96412.69;;;8.25;100.00
20015;BME280;61787;42.022;23.078;2023-12-07T05:11:49;96415.78;;;8.27;100.00
20015;BME280;61787;42.022;23.078;2023-12-07T05:12:50;96417.34;;;8.28;100.00
20015;BME280;61787;42.022;23.078;2023-12-07T05:13:52;96411.22;;;8.28;100.00
20015;BME280;61787;42.022;23.078;2023-12-07T05:14:57;96414.41;;;8.30;100.00
20015;BME280;61787;42.022;23.078;2023-12-07T05:15:59;96414.41;;;8.30;100.00
20015;BME280;61787;42.022;23.078;2023-12-07T05:17:01;96415.97;;;8.31;100.00
20015;BME280;61787;42.022;23.078;2023-12-07T05:18:04;96416.88;;;8.26;100.00
20015;BME280;61787;42.022;23.078;2023-12-07T05:19:06;96421.59;;;8.29;100.00
20015;BME280;61787;42.022;23.078;2023-12-07T05:20:08;96422.41;;;8.30;100.00
20015;BME280;61787;42.022;23.078;2023-12-07T05:21:10;96420.97;;;8.32;100.00
20015;BME280;61787;42.022;23.078;2023-12-07T05:22:11;96426.75;;;8.34;100.00
20015;BME280;61787;42.022;23.078;2023-12-07T05:23:16;96427.88;;;8.33;100.00
20015;BME280;61787;42.022;23.078;2023-12-07T05:24:34;96420.34;;;8.27;100.00
20015;BME280;61787;42.022;23.078;2023-12-07T05:25:38;96431.50;;;8.29;100.00
20015;BME280;61787;42.022;23.078;2023-12-07T05:26:41;96429.59;;;8.29;100.00
20015;BME280;61787;42.022;23.078;2023-12-07T05:27:44;96430.41;;;8.30;100.00
20015;BME280;61787;42.022;23.078;2023-12-07T05:28:46;96430.41;;;8.30;100.00
20015;BME280;61787;42.022;23.078;2023-12-07T05:29:48;96428.53;;;8.30;100.00
20015;BME280;61787;42.022;23.078;2023-12-07T05:30:49;96429.75;;;8.33;100.00